createdAt,value
2023-04-19T00:00:44.810Z,10.60
2023-04-19T00:01:46.892Z,10.70
2023-04-19T00:02:50.662Z,10.60
2023-04-19T00:03:52.975Z,10.60
2023-04-19T00:04:56.667Z,10.60
2023-04-19T00:05:59.331Z,10.60
2023-04-19T00:07:03.428Z,10.60
2023-04-19T00:08:06.225Z,10.60
2023-04-19T00:09:09.227Z,10.60
2023-04-19T00:10:11.305Z,10.60
2023-04-19T00:11:16.012Z,10.60
2023-04-19T00:12:17.987Z,10.60
2023-04-19T00:13:21.849Z,10.60
2023-04-19T00:14:23.860Z,10.50
2023-04-19T00:15:26.911Z,10.50
2023-04-19T00:16:28.949Z,10.50
2023-04-19T00:17:31.934Z,10.50
2023-04-19T00:18:34.016Z,10.50
2023-04-19T00:19:36.911Z,10.50
2023-04-19T00:20:39.098Z,10.50
2023-04-19T00:21:42.267Z,10.50
2023-04-19T00:22:45.928Z,10.50
2023-04-19T00:23:48.916Z,10.40
2023-04-19T00:24:50.899Z,10.40
2023-04-19T00:25:53.876Z,10.40
2023-04-19T00:26:57.429Z,10.40
2023-04-19T00:28:00.379Z,10.40
2023-04-19T00:29:02.358Z,10.40
2023-04-19T00:30:06.232Z,10.40
2023-04-19T00:31:08.216Z,10.40
2023-04-19T00:32:11.397Z,10.40
2023-04-19T00:33:13.396Z,10.40
2023-04-19T00:34:16.481Z,10.40
2023-04-19T00:35:18.926Z,10.30
2023-04-19T00:36:21.900Z,10.30
2023-04-19T00:37:23.902Z,10.30
2023-04-19T00:38:26.966Z,10.30
2023-04-19T00:39:28.980Z,10.30
2023-04-19T00:40:33.000Z,10.30
2023-04-19T00:41:34.969Z,10.30
2023-04-19T00:42:39.238Z,10.30
2023-04-19T00:43:41.166Z,10.30
2023-04-19T00:44:45.391Z,10.30
2023-04-19T00:45:49.404Z,10.30
2023-04-19T00:46:52.928Z,10.30
2023-04-19T00:47:55.588Z,10.30
2023-04-19T00:48:58.832Z,10.30
2023-04-19T00:50:00.894Z,10.30
2023-04-19T00:51:04.106Z,10.20
2023-04-19T00:52:06.311Z,10.20
2023-04-19T00:53:09.398Z,10.30
2023-04-19T00:54:12.149Z,10.30
2023-04-19T00:55:15.730Z,10.20
2023-04-19T00:56:19.173Z,10.20
2023-04-19T00:57:22.960Z,10.20
2023-04-19T00:58:28.221Z,10.20
2023-04-19T00:59:31.871Z,10.20
2023-04-19T01:00:33.875Z,10.20
2023-04-19T01:01:38.186Z,10.20
2023-04-19T01:02:40.444Z,10.30
2023-04-19T01:03:43.648Z,10.30
2023-04-19T01:04:45.910Z,10.30
2023-04-19T01:05:49.565Z,10.20
2023-04-19T01:06:51.607Z,10.20
2023-04-19T01:07:54.583Z,10.20
2023-04-19T01:08:56.539Z,10.20
2023-04-19T01:09:59.428Z,10.10
2023-04-19T01:11:01.622Z,10.10
2023-04-19T01:12:04.623Z,10.20
2023-04-19T01:13:06.875Z,10.20
2023-04-19T01:14:11.184Z,10.20
2023-04-19T01:15:13.138Z,10.20
2023-04-19T01:16:16.054Z,10.20
2023-04-19T01:17:18.787Z,10.10
2023-04-19T01:18:20.690Z,10.10
2023-04-19T01:20:26.064Z,10.00
2023-04-19T01:21:30.643Z,10.00
2023-04-19T01:22:34.118Z,9.90
2023-04-19T01:23:38.990Z,9.90
2023-04-19T01:24:40.971Z,9.90
2023-04-19T01:26:46.619Z,9.90
2023-04-19T01:27:49.556Z,9.80
2023-04-19T01:28:51.473Z,9.80
2023-04-19T01:29:54.469Z,9.80
2023-04-19T01:30:56.473Z,9.70
2023-04-19T01:31:59.471Z,9.80
2023-04-19T01:33:01.483Z,9.70
2023-04-19T01:34:04.536Z,9.80
2023-04-19T01:35:07.297Z,9.80
2023-04-19T01:36:10.319Z,9.80
2023-04-19T01:37:12.244Z,9.80
2023-04-19T01:38:16.701Z,9.80
2023-04-19T01:40:23.171Z,9.80
2023-04-19T01:41:27.218Z,9.70
2023-04-19T01:42:30.284Z,9.80
2023-04-19T01:43:32.202Z,9.80
2023-04-19T01:44:35.102Z,9.70
2023-04-19T01:45:37.287Z,9.70
2023-04-19T01:46:42.998Z,9.70
2023-04-19T01:47:45.252Z,9.70
2023-04-19T01:48:48.222Z,9.60
2023-04-19T01:49:50.122Z,9.60
2023-04-19T01:50:53.011Z,9.70
2023-04-19T01:51:55.002Z,9.70
2023-04-19T01:52:57.991Z,9.70
2023-04-19T01:54:02.600Z,9.70
2023-04-19T01:55:06.023Z,9.70
2023-04-19T01:56:08.248Z,9.70
2023-04-19T01:57:11.210Z,9.70
2023-04-19T01:58:13.191Z,9.70
2023-04-19T01:59:16.366Z,9.60
2023-04-19T02:00:18.353Z,9.70
2023-04-19T02:01:21.350Z,9.60
2023-04-19T02:02:23.554Z,9.60
2023-04-19T02:03:26.866Z,9.70
2023-04-19T02:04:28.959Z,9.60
2023-04-19T02:05:31.906Z,9.60
2023-04-19T02:07:37.209Z,9.70
2023-04-19T02:08:39.273Z,9.60
2023-04-19T02:09:43.512Z,9.60
2023-04-19T02:10:45.477Z,9.70
2023-04-19T02:11:48.425Z,9.70
2023-04-19T02:12:50.392Z,9.70
2023-04-19T02:13:53.313Z,9.70
2023-04-19T02:14:57.298Z,9.70
2023-04-19T02:16:01.729Z,9.70
2023-04-19T02:17:03.773Z,9.70
2023-04-19T02:18:08.286Z,9.70
2023-04-19T02:19:10.283Z,9.70
2023-04-19T02:20:13.226Z,9.60
2023-04-19T02:21:15.157Z,9.60
2023-04-19T02:22:18.097Z,9.60
2023-04-19T02:23:20.082Z,9.50
2023-04-19T02:24:23.025Z,9.60
2023-04-19T02:25:26.374Z,9.60
2023-04-19T02:26:29.279Z,9.60
2023-04-19T02:27:31.227Z,9.60
2023-04-19T02:28:34.253Z,9.60
2023-04-19T02:29:36.227Z,9.60
2023-04-19T02:30:39.198Z,9.60
2023-04-19T02:31:41.167Z,9.70
2023-04-19T02:32:44.167Z,9.60
2023-04-19T02:33:46.906Z,9.60
2023-04-19T02:34:49.902Z,9.60
2023-04-19T02:35:51.930Z,9.60
2023-04-19T02:36:54.834Z,9.60
2023-04-19T02:37:56.759Z,9.60
2023-04-19T02:38:59.680Z,9.60
2023-04-19T02:40:01.596Z,9.60
2023-04-19T02:41:06.219Z,9.60
2023-04-19T02:42:08.200Z,9.60
2023-04-19T02:43:11.158Z,9.60
2023-04-19T02:44:13.203Z,9.50
2023-04-19T02:45:16.310Z,9.60
2023-04-19T02:46:18.283Z,9.60
2023-04-19T02:47:21.422Z,9.60
2023-04-19T02:49:26.849Z,9.60
2023-04-19T02:50:28.894Z,9.60
2023-04-19T02:51:31.956Z,9.50
2023-04-19T02:52:34.109Z,9.60
2023-04-19T02:53:37.055Z,9.50
2023-04-19T02:54:39.056Z,9.50
2023-04-19T02:55:42.727Z,9.50
2023-04-19T02:56:46.003Z,9.40
2023-04-19T02:57:48.994Z,9.40
2023-04-19T02:58:54.164Z,9.40
2023-04-19T02:59:56.243Z,9.40
2023-04-19T03:00:59.177Z,9.50
2023-04-19T03:02:01.238Z,9.40
2023-04-19T03:03:05.001Z,9.40
2023-04-19T03:04:07.251Z,9.40
2023-04-19T03:05:11.043Z,9.30
2023-04-19T03:06:12.989Z,9.30
2023-04-19T03:07:16.317Z,9.30
2023-04-19T03:08:18.325Z,9.30
2023-04-19T03:09:21.402Z,9.30
2023-04-19T03:10:23.378Z,9.30
2023-04-19T03:11:26.439Z,9.30
2023-04-19T03:12:29.748Z,9.30
2023-04-19T03:13:32.737Z,9.30
2023-04-19T03:14:34.709Z,9.30
2023-04-19T03:15:37.730Z,9.30
2023-04-19T03:16:39.750Z,9.20
2023-04-19T03:17:42.701Z,9.20
2023-04-19T03:18:46.177Z,9.20
2023-04-19T03:19:50.247Z,9.20
2023-04-19T03:20:52.193Z,9.30
2023-04-19T03:22:57.693Z,9.20
2023-04-19T03:25:03.388Z,9.20
2023-04-19T03:26:06.454Z,9.10
2023-04-19T03:27:08.424Z,9.10
2023-04-19T03:28:12.684Z,9.10
2023-04-19T03:29:14.584Z,9.20
2023-04-19T03:30:18.294Z,9.20
2023-04-19T03:31:20.238Z,9.20
2023-04-19T03:33:25.361Z,9.20
2023-04-19T03:34:28.267Z,9.20
2023-04-19T03:36:35.352Z,9.20
2023-04-19T03:37:37.325Z,9.20
2023-04-19T03:38:40.828Z,9.20
2023-04-19T03:39:42.780Z,9.20
2023-04-19T03:40:45.728Z,9.20
2023-04-19T03:41:47.651Z,9.20
2023-04-19T03:42:50.589Z,9.10
2023-04-19T03:43:54.101Z,9.10
2023-04-19T03:44:57.104Z,9.10
2023-04-19T03:45:59.021Z,9.00
2023-04-19T03:47:01.969Z,9.10
2023-04-19T03:48:04.087Z,9.10
2023-04-19T03:49:06.992Z,9.10
2023-04-19T03:50:09.950Z,9.00
2023-04-19T03:51:13.778Z,9.00
2023-04-19T03:52:15.790Z,9.00
2023-04-19T03:53:19.063Z,9.00
2023-04-19T03:54:21.090Z,9.00
2023-04-19T03:55:24.013Z,9.00
2023-04-19T03:56:26.032Z,9.00
2023-04-19T03:57:28.934Z,9.00
2023-04-19T03:58:30.865Z,9.00
2023-04-19T03:59:36.241Z,9.10
2023-04-19T04:01:42.397Z,9.00
2023-04-19T04:02:45.079Z,9.00
2023-04-19T04:03:48.834Z,9.00
2023-04-19T04:04:54.224Z,9.00
2023-04-19T04:05:57.581Z,8.90
2023-04-19T04:06:59.513Z,9.00
2023-04-19T04:08:02.415Z,8.90
2023-04-19T04:09:04.863Z,9.00
2023-04-19T04:10:09.234Z,9.00
2023-04-19T04:11:11.619Z,8.90
2023-04-19T04:12:14.620Z,8.90
2023-04-19T04:13:16.573Z,8.90
2023-04-19T04:15:23.404Z,8.90
2023-04-19T04:16:26.537Z,8.90
2023-04-19T04:17:28.530Z,8.90
2023-04-19T04:18:31.972Z,8.90
2023-04-19T04:19:33.902Z,8.90
2023-04-19T04:20:36.882Z,8.90
2023-04-19T04:21:38.876Z,8.90
2023-04-19T04:22:43.515Z,9.00
2023-04-19T04:23:47.144Z,9.00
2023-04-19T04:24:50.068Z,8.90
2023-04-19T04:25:59.214Z,8.90
2023-04-19T04:27:03.497Z,8.90
2023-04-19T04:28:05.794Z,8.90
2023-04-19T04:29:08.790Z,8.90
2023-04-19T04:30:11.484Z,8.90
2023-04-19T04:31:18.127Z,8.90
2023-04-19T04:32:23.559Z,8.90
2023-04-19T04:33:27.547Z,8.90
2023-04-19T04:34:29.442Z,8.90
2023-04-19T04:35:32.919Z,8.90
2023-04-19T04:36:36.615Z,8.90
2023-04-19T04:37:40.280Z,8.90
2023-04-19T04:38:43.182Z,8.80
2023-04-19T04:39:46.106Z,8.90
2023-04-19T04:40:50.802Z,8.80
2023-04-19T04:41:53.709Z,8.80
2023-04-19T04:42:55.638Z,8.80
2023-04-19T04:44:12.223Z,8.80
2023-04-19T04:45:18.579Z,8.80
2023-04-19T04:46:22.056Z,8.80
2023-04-19T04:47:26.016Z,8.70
2023-04-19T04:48:28.057Z,8.70
2023-04-19T04:49:31.145Z,8.80
2023-04-19T04:50:33.194Z,8.80
2023-04-19T04:51:37.186Z,8.80
2023-04-19T04:52:39.154Z,8.80
2023-04-19T04:53:42.086Z,8.80
2023-04-19T04:54:44.060Z,8.80
2023-04-19T04:55:47.021Z,8.90
2023-04-19T04:56:49.380Z,8.90
2023-04-19T04:57:52.500Z,8.90
2023-04-19T04:58:54.477Z,8.90
2023-04-19T04:59:57.439Z,8.90
2023-04-19T05:00:59.414Z,8.90
2023-04-19T05:02:03.768Z,8.80
2023-04-19T05:03:05.900Z,8.90
2023-04-19T05:04:09.341Z,8.90
2023-04-19T05:05:11.400Z,8.90
2023-04-19T05:06:14.386Z,8.80
2023-04-19T05:07:16.335Z,8.90
2023-04-19T05:08:19.329Z,8.80
2023-04-19T05:09:21.344Z,8.80
2023-04-19T05:10:24.425Z,8.90
2023-04-19T05:11:27.507Z,8.90
2023-04-19T05:12:30.452Z,8.90
2023-04-19T05:13:32.440Z,8.90
2023-04-19T05:14:35.342Z,8.90
2023-04-19T05:15:37.306Z,8.90
2023-04-19T05:16:41.244Z,8.80
2023-04-19T05:17:44.670Z,8.90
2023-04-19T05:18:47.674Z,8.90
2023-04-19T05:19:49.624Z,8.90
2023-04-19T05:20:52.560Z,8.90
2023-04-19T05:21:54.493Z,8.90
2023-04-19T05:23:03.386Z,8.90
2023-04-19T05:24:05.935Z,8.90
2023-04-19T05:25:10.928Z,8.90
2023-04-19T05:26:15.304Z,8.90
2023-04-19T05:27:17.240Z,8.90
2023-04-19T05:28:20.184Z,9.00
2023-04-19T05:29:22.110Z,8.90
2023-04-19T05:30:25.072Z,9.00
2023-04-19T05:31:27.159Z,9.00
2023-04-19T05:32:30.162Z,9.00
2023-04-19T05:33:33.433Z,9.00
2023-04-19T05:34:37.618Z,9.00
2023-04-19T05:35:39.603Z,9.10
2023-04-19T05:36:42.523Z,9.20
2023-04-19T05:37:44.448Z,9.20
2023-04-19T05:38:47.379Z,9.20
2023-04-19T05:39:49.317Z,9.20
2023-04-19T05:40:52.235Z,9.20
2023-04-19T05:41:54.192Z,9.20
2023-04-19T05:42:57.123Z,9.20
2023-04-19T05:43:59.078Z,9.20
2023-04-19T05:45:03.416Z,9.30
2023-04-19T05:46:07.651Z,9.40
2023-04-19T05:47:10.672Z,9.30
2023-04-19T05:48:13.573Z,9.40
2023-04-19T05:49:16.919Z,9.40
2023-04-19T05:50:20.570Z,9.40
2023-04-19T05:51:22.680Z,9.50
2023-04-19T05:52:25.664Z,9.50
2023-04-19T05:53:27.623Z,9.50
2023-04-19T05:54:34.440Z,9.50
2023-04-19T05:55:37.403Z,9.50
2023-04-19T05:56:39.764Z,9.50
2023-04-19T05:57:42.712Z,9.50
2023-04-19T05:58:44.664Z,9.60
2023-04-19T05:59:47.624Z,9.60
2023-04-19T06:00:49.643Z,9.60
2023-04-19T06:01:52.823Z,9.60
2023-04-19T06:02:54.918Z,9.60
2023-04-19T06:03:58.142Z,9.60
2023-04-19T06:05:09.957Z,9.60
2023-04-19T06:06:13.673Z,9.70
2023-04-19T06:07:30.211Z,9.60
2023-04-19T06:08:36.038Z,9.80
2023-04-19T06:09:38.003Z,9.80
2023-04-19T06:10:53.366Z,9.80
2023-04-19T06:11:58.528Z,9.80
2023-04-19T06:13:00.568Z,9.80
2023-04-19T06:14:03.537Z,9.90
2023-04-19T06:15:06.783Z,9.90
2023-04-19T06:16:10.277Z,9.90
2023-04-19T06:17:12.305Z,9.80
2023-04-19T06:18:19.108Z,9.80
2023-04-19T06:19:22.811Z,9.90
2023-04-19T06:20:27.185Z,9.90
2023-04-19T06:21:30.872Z,9.80
2023-04-19T06:22:33.856Z,9.90
2023-04-19T06:23:35.864Z,9.90
2023-04-19T06:24:38.796Z,9.90
2023-04-19T06:25:41.213Z,9.90
2023-04-19T06:26:44.314Z,9.90
2023-04-19T06:27:46.294Z,10.00
2023-04-19T06:28:49.238Z,10.00
2023-04-19T06:29:52.165Z,10.00
2023-04-19T06:30:54.106Z,10.00
2023-04-19T06:31:57.160Z,10.00
2023-04-19T06:32:59.149Z,10.00
2023-04-19T06:34:02.088Z,9.90
2023-04-19T06:35:06.088Z,10.00
2023-04-19T06:36:11.407Z,10.00
2023-04-19T06:37:14.769Z,10.00
2023-04-19T06:38:18.700Z,10.00
2023-04-19T06:39:21.934Z,10.00
2023-04-19T06:40:24.928Z,10.00
2023-04-19T06:41:26.934Z,10.00
2023-04-19T06:42:29.847Z,10.00
2023-04-19T06:43:31.764Z,10.10
2023-04-19T06:44:34.677Z,10.10
2023-04-19T06:45:37.708Z,10.10
2023-04-19T06:46:39.804Z,10.10
2023-04-19T06:47:43.082Z,10.00
2023-04-19T06:48:45.049Z,10.00
2023-04-19T06:49:47.969Z,10.00
2023-04-19T06:50:50.916Z,10.00
2023-04-19T06:51:54.368Z,10.00
2023-04-19T06:52:57.368Z,10.10
2023-04-19T06:54:00.422Z,10.10
2023-04-19T06:55:02.518Z,10.10
2023-04-19T06:56:06.440Z,10.10
2023-04-19T06:58:11.779Z,10.20
2023-04-19T06:59:16.516Z,10.20
2023-04-19T07:00:19.114Z,10.20
2023-04-19T07:01:22.058Z,10.20
2023-04-19T07:02:24.214Z,10.30
2023-04-19T07:03:27.426Z,10.00
2023-04-19T07:04:29.567Z,9.80
2023-04-19T07:05:32.884Z,9.80
2023-04-19T07:06:36.700Z,9.80
2023-04-19T07:07:41.290Z,9.80
2023-04-19T07:08:50.181Z,10.00
2023-04-19T07:09:54.110Z,10.20
2023-04-19T07:10:57.127Z,10.20
2023-04-19T07:11:59.271Z,10.30
2023-04-19T07:13:02.354Z,10.40
2023-04-19T07:14:05.286Z,10.40
2023-04-19T07:15:08.472Z,10.50
2023-04-19T07:16:11.446Z,10.50
2023-04-19T07:17:15.767Z,10.50
2023-04-19T07:18:18.680Z,10.60
2023-04-19T07:19:22.765Z,10.50
2023-04-19T07:20:25.926Z,10.50
2023-04-19T07:21:32.760Z,10.50
2023-04-19T07:22:35.794Z,10.60
2023-04-19T07:23:39.178Z,10.50
2023-04-19T07:24:42.089Z,10.50
2023-04-19T07:25:45.040Z,10.50
2023-04-19T07:26:46.985Z,10.50
2023-04-19T07:27:52.363Z,10.50
2023-04-19T07:28:56.185Z,10.50
2023-04-19T07:29:59.213Z,10.50
2023-04-19T07:31:01.164Z,10.50
2023-04-19T07:32:04.267Z,10.50
2023-04-19T07:33:10.469Z,10.50
2023-04-19T07:34:13.570Z,10.50
2023-04-19T07:35:15.626Z,10.40
2023-04-19T07:36:18.644Z,10.50
2023-04-19T07:37:21.593Z,10.50
2023-04-19T07:38:24.766Z,10.60
2023-04-19T07:39:31.069Z,10.50
2023-04-19T07:40:33.046Z,10.50
2023-04-19T07:41:36.461Z,10.50
2023-04-19T07:42:38.623Z,10.50
2023-04-19T07:43:41.536Z,10.50
2023-04-19T07:44:43.698Z,10.50
2023-04-19T07:45:46.918Z,10.50
2023-04-19T07:46:48.957Z,10.50
2023-04-19T07:47:52.131Z,10.50
2023-04-19T07:48:54.140Z,10.60
2023-04-19T07:49:59.133Z,10.70
2023-04-19T07:51:09.939Z,10.50
2023-04-19T07:52:13.132Z,10.40
2023-04-19T07:53:16.422Z,10.40
2023-04-19T07:54:20.222Z,10.40
2023-04-19T07:55:23.562Z,10.40
2023-04-19T07:56:27.340Z,10.40
2023-04-19T07:57:30.502Z,10.50
2023-04-19T07:58:32.475Z,10.50
2023-04-19T07:59:35.411Z,10.50
2023-04-19T08:00:38.315Z,10.50
2023-04-19T08:01:41.410Z,10.50
2023-04-19T08:02:44.983Z,10.50
2023-04-19T08:03:48.428Z,10.40
2023-04-19T08:04:52.153Z,10.40
2023-04-19T08:05:55.464Z,10.40
2023-04-19T08:06:57.382Z,10.50
2023-04-19T08:08:00.262Z,10.50
2023-04-19T08:09:03.070Z,10.50
2023-04-19T08:10:07.138Z,10.50
2023-04-19T08:11:10.427Z,10.50
2023-04-19T08:12:26.300Z,10.40
2023-04-19T08:13:36.268Z,10.50
2023-04-19T08:17:54.602Z,10.50
2023-04-19T08:18:56.593Z,10.50
2023-04-19T08:19:59.538Z,10.50
2023-04-19T08:21:02.503Z,10.40
2023-04-19T08:22:05.806Z,10.40
2023-04-19T08:23:18.579Z,10.50
2023-04-19T08:24:25.676Z,10.50
2023-04-19T08:25:28.941Z,10.60
2023-04-19T08:26:33.268Z,10.60
2023-04-19T08:27:36.204Z,10.50
2023-04-19T08:28:39.389Z,10.60
2023-04-19T08:29:41.346Z,10.50
2023-04-19T08:30:44.315Z,10.60
2023-04-19T08:31:47.479Z,10.50
2023-04-19T08:32:51.003Z,10.60
2023-04-19T08:33:54.070Z,10.60
2023-04-19T08:34:57.796Z,10.50
2023-04-19T08:36:00.772Z,10.50
2023-04-19T08:37:04.732Z,10.50
2023-04-19T08:38:08.032Z,10.60
2023-04-19T08:39:17.791Z,10.60
2023-04-19T08:40:28.022Z,10.60
2023-04-19T08:41:32.212Z,10.60
2023-04-19T08:43:43.547Z,10.60
2023-04-19T08:45:55.011Z,10.70
2023-04-19T08:46:58.756Z,10.70
2023-04-19T08:48:04.005Z,10.70
2023-04-19T08:49:07.149Z,10.70
2023-04-19T08:50:24.013Z,10.70
2023-04-19T08:51:33.450Z,10.70
2023-04-19T08:52:51.499Z,10.70
2023-04-19T08:53:58.246Z,10.70
2023-04-19T08:55:03.322Z,10.70
2023-04-19T08:56:17.951Z,10.70
2023-04-19T08:57:31.055Z,10.70
2023-04-19T08:58:51.953Z,10.70
2023-04-19T08:59:57.956Z,10.60
2023-04-19T09:01:00.200Z,10.70
2023-04-19T09:02:03.815Z,10.70
2023-04-19T09:03:08.006Z,10.60
2023-04-19T09:04:34.558Z,10.60
2023-04-19T09:05:34.527Z,10.70
2023-04-19T09:06:38.261Z,10.80
2023-04-19T09:07:42.284Z,10.70
2023-04-19T09:08:44.228Z,10.70
2023-04-19T09:10:55.662Z,10.80
2023-04-19T09:11:59.175Z,10.80
2023-04-19T09:13:05.604Z,11.20
2023-04-19T09:14:12.655Z,11.30
2023-04-19T09:15:14.684Z,10.90
2023-04-19T09:16:26.839Z,10.50
2023-04-19T09:17:29.012Z,10.30
2023-04-19T09:18:35.790Z,10.10
2023-04-19T09:19:46.806Z,10.00
2023-04-19T09:20:50.257Z,9.90
2023-04-19T09:21:54.179Z,9.90
2023-04-19T09:23:06.086Z,9.80
2023-04-19T09:24:09.633Z,9.90
2023-04-19T09:25:46.419Z,10.10
2023-04-19T09:26:55.882Z,10.20
2023-04-19T09:28:09.925Z,10.30
2023-04-19T09:29:18.701Z,10.40
2023-04-19T09:30:32.517Z,10.40
2023-04-19T09:32:47.357Z,10.30
2023-04-19T09:33:50.673Z,10.50
2023-04-19T09:34:55.530Z,10.30
2023-04-19T09:35:58.757Z,10.30
2023-04-19T09:37:24.909Z,10.30
2023-04-19T09:38:49.870Z,10.20
2023-04-19T09:39:53.226Z,10.30
2023-04-19T09:41:10.459Z,10.30
2023-04-19T09:42:13.402Z,10.30
2023-04-19T09:43:53.236Z,10.30
2023-04-19T09:46:30.904Z,10.30
2023-04-19T09:47:35.132Z,10.30
2023-04-19T09:48:37.193Z,10.30
2023-04-19T09:49:48.413Z,10.30
2023-04-19T09:50:58.931Z,10.30
2023-04-19T09:52:04.975Z,10.40
2023-04-19T09:53:08.424Z,10.40
2023-04-19T09:54:11.406Z,10.30
2023-04-19T09:55:26.222Z,10.30
2023-04-19T09:56:31.133Z,10.30
2023-04-19T09:57:34.128Z,10.20
2023-04-19T09:58:49.946Z,10.30
2023-04-19T09:59:57.434Z,10.20
2023-04-19T10:01:13.116Z,10.20
2023-04-19T10:02:18.650Z,10.10
2023-04-19T10:03:22.158Z,10.10
2023-04-19T10:04:43.628Z,10.10
2023-04-19T10:05:51.315Z,10.10
2023-04-19T10:07:19.268Z,10.00
2023-04-19T10:08:18.969Z,10.00
2023-04-19T10:09:22.706Z,10.10
2023-04-19T10:10:40.596Z,10.00
2023-04-19T10:11:52.152Z,9.90
2023-04-19T10:13:15.944Z,9.90
2023-04-19T10:14:25.333Z,9.90
2023-04-19T10:15:33.688Z,9.90
2023-04-19T10:16:42.733Z,9.90
2023-04-19T10:17:44.858Z,9.80
2023-04-19T10:18:48.782Z,9.90
2023-04-19T10:19:56.876Z,9.80
2023-04-19T10:21:02.498Z,9.80
2023-04-19T10:22:07.085Z,9.80
2023-04-19T10:23:10.199Z,9.80
2023-04-19T10:24:14.498Z,9.90
2023-04-19T10:25:17.167Z,9.80
2023-04-19T10:26:20.102Z,9.90
2023-04-19T10:27:26.600Z,9.80
2023-04-19T10:28:30.835Z,9.80
2023-04-19T10:29:57.308Z,9.80
2023-04-19T10:31:02.503Z,9.70
2023-04-19T10:32:05.328Z,9.70
2023-04-19T10:33:08.338Z,9.80
2023-04-19T10:34:13.898Z,9.70
2023-04-19T10:35:20.528Z,9.70
2023-04-19T10:36:23.673Z,9.70
2023-04-19T10:37:26.310Z,9.70
2023-04-19T10:38:40.167Z,9.70
2023-04-19T10:39:43.284Z,9.70
2023-04-19T10:40:57.174Z,9.70
2023-04-19T10:42:00.579Z,9.60
2023-04-19T10:43:18.280Z,9.70
2023-04-19T10:44:21.310Z,9.60
2023-04-19T10:45:34.651Z,9.60
2023-04-19T10:46:40.754Z,9.60
2023-04-19T10:47:44.981Z,9.50
2023-04-19T10:48:55.617Z,9.60
2023-04-19T10:49:57.584Z,9.70
2023-04-19T10:51:01.306Z,9.80
2023-04-19T10:52:04.272Z,9.90
2023-04-19T10:53:39.505Z,9.90
2023-04-19T10:54:42.437Z,10.00
2023-04-19T10:55:51.108Z,10.00
2023-04-19T10:57:05.207Z,9.90
2023-04-19T10:58:07.760Z,10.00
2023-04-19T10:59:21.961Z,10.00
2023-04-19T11:00:31.304Z,10.10
2023-04-19T11:01:38.021Z,10.10
2023-04-19T11:02:41.559Z,10.10
2023-04-19T11:03:53.228Z,10.10
2023-04-19T11:05:06.079Z,10.10
2023-04-19T11:06:20.123Z,10.10
2023-04-19T11:07:23.082Z,10.10
2023-04-19T11:08:26.816Z,10.10
2023-04-19T11:09:31.286Z,10.10
2023-04-19T11:10:37.643Z,10.10
2023-04-19T11:11:39.645Z,10.10
2023-04-19T11:12:46.125Z,10.20
2023-04-19T11:13:48.431Z,10.10
2023-04-19T11:14:54.087Z,10.10
2023-04-19T11:15:58.960Z,10.10
2023-04-19T11:17:14.765Z,10.10
2023-04-19T11:18:19.912Z,10.10
2023-04-19T11:20:25.990Z,10.10
2023-04-19T11:21:30.251Z,10.10
2023-04-19T11:22:34.146Z,10.10
2023-04-19T11:23:36.210Z,10.20
2023-04-19T11:25:42.514Z,10.10
2023-04-19T11:26:44.535Z,10.10
2023-04-19T11:27:48.812Z,10.10
2023-04-19T11:28:50.837Z,10.10
2023-04-19T11:29:53.786Z,10.10
2023-04-19T11:30:57.633Z,10.10
2023-04-19T11:32:01.888Z,10.00
2023-04-19T11:33:05.035Z,10.10
2023-04-19T11:34:07.005Z,10.00
2023-04-19T11:35:10.971Z,10.00
2023-04-19T11:37:16.340Z,10.10
2023-04-19T11:38:18.268Z,10.10
2023-04-19T11:39:21.527Z,10.10
2023-04-19T11:40:26.994Z,10.00
2023-04-19T11:41:29.144Z,10.00
2023-04-19T11:42:32.244Z,10.00
2023-04-19T11:43:34.689Z,10.00
2023-04-19T11:44:40.115Z,10.00
2023-04-19T11:45:42.663Z,10.10
2023-04-19T11:46:59.639Z,10.10
2023-04-19T11:48:07.365Z,10.00
2023-04-19T11:49:09.684Z,10.00
2023-04-19T11:50:40.416Z,10.10
2023-04-19T11:51:43.412Z,10.10
2023-04-19T11:52:50.591Z,10.10
2023-04-19T11:53:52.560Z,10.20
2023-04-19T11:54:55.850Z,10.10
2023-04-19T11:56:05.433Z,10.10
2023-04-19T11:57:09.684Z,10.10
2023-04-19T11:58:29.223Z,10.10
2023-04-19T11:59:33.359Z,10.10
2023-04-19T12:00:35.537Z,10.10
2023-04-19T12:01:38.538Z,10.10
2023-04-19T12:02:43.585Z,10.10
2023-04-19T12:03:49.850Z,10.10
2023-04-19T12:04:52.507Z,10.10
2023-04-19T12:05:56.767Z,10.10
2023-04-19T12:07:00.223Z,10.10
2023-04-19T12:08:04.443Z,10.10
2023-04-19T12:09:09.199Z,10.10
2023-04-19T12:10:13.438Z,10.10
2023-04-19T12:11:17.062Z,10.00
2023-04-19T12:12:32.361Z,10.10
2023-04-19T12:13:36.398Z,10.10
2023-04-19T12:14:39.387Z,10.10
2023-04-19T12:15:42.023Z,10.10
2023-04-19T12:16:45.935Z,10.10
2023-04-19T12:17:58.737Z,10.10
2023-04-19T12:19:13.950Z,10.20
2023-04-19T12:20:29.363Z,10.20
2023-04-19T12:21:33.120Z,10.20
2023-04-19T12:22:35.086Z,10.30
2023-04-19T12:23:38.074Z,10.40
2023-04-19T12:24:40.835Z,10.30
2023-04-19T12:25:46.143Z,10.30
2023-04-19T12:26:56.195Z,10.30
2023-04-19T12:27:59.989Z,10.30
2023-04-19T12:29:03.258Z,10.30
2023-04-19T12:30:07.334Z,10.30
2023-04-19T12:31:09.317Z,10.30
2023-04-19T12:33:40.444Z,10.40
2023-04-19T12:34:44.739Z,10.40
2023-04-19T12:35:47.686Z,10.40
2023-04-19T12:36:50.042Z,10.40
2023-04-19T12:37:54.478Z,10.40
2023-04-19T12:38:56.428Z,10.40
2023-04-19T12:39:59.367Z,10.40
2023-04-19T12:41:01.703Z,10.40
2023-04-19T12:42:05.976Z,10.40
2023-04-19T12:43:08.130Z,10.40
2023-04-19T12:44:11.088Z,10.40
2023-04-19T12:45:15.008Z,10.40
2023-04-19T12:46:16.964Z,10.40
2023-04-19T12:47:19.877Z,10.40
2023-04-19T12:48:24.043Z,10.40
2023-04-19T12:49:26.324Z,10.30
2023-04-19T12:50:30.586Z,10.30
2023-04-19T12:51:32.770Z,10.40
2023-04-19T12:52:36.002Z,10.40
2023-04-19T12:53:37.940Z,10.40
2023-04-19T12:54:41.456Z,10.50
2023-04-19T12:55:47.296Z,10.50
2023-04-19T12:56:50.330Z,10.50
2023-04-19T12:57:52.359Z,10.50
2023-04-19T12:58:55.252Z,10.50
2023-04-19T12:59:58.266Z,10.60
2023-04-19T13:01:01.229Z,10.70
2023-04-19T13:02:04.317Z,10.70
2023-04-19T13:03:07.536Z,10.70
2023-04-19T13:04:13.550Z,10.80
2023-04-19T13:05:15.805Z,10.80
2023-04-19T13:06:20.244Z,10.80
2023-04-19T13:07:23.197Z,10.90
2023-04-19T13:08:41.030Z,11.00
2023-04-19T13:09:47.399Z,10.90
2023-04-19T13:10:49.372Z,10.90
2023-04-19T13:11:52.258Z,10.90
2023-04-19T13:12:55.425Z,10.90
2023-04-19T13:13:57.348Z,10.90
2023-04-19T13:15:02.696Z,10.80
2023-04-19T13:16:08.003Z,10.90
2023-04-19T13:17:11.069Z,10.90
2023-04-19T13:18:14.072Z,10.80
2023-04-19T13:19:17.044Z,10.90
2023-04-19T13:20:19.790Z,10.80
2023-04-19T13:21:24.521Z,10.90
2023-04-19T13:22:26.881Z,11.00
2023-04-19T13:23:30.244Z,10.90
2023-04-19T13:24:32.185Z,11.00
2023-04-19T13:25:35.113Z,11.00
2023-04-19T13:26:37.357Z,11.00
2023-04-19T13:27:40.450Z,10.90
2023-04-19T13:28:42.790Z,11.00
2023-04-19T13:29:45.717Z,11.00
2023-04-19T13:30:47.652Z,11.00
2023-04-19T13:31:50.668Z,11.10
2023-04-19T13:32:52.754Z,11.20
2023-04-19T13:33:56.028Z,11.20
2023-04-19T13:34:57.930Z,11.20
2023-04-19T13:36:00.901Z,11.20
2023-04-19T13:37:05.245Z,11.20
2023-04-19T13:38:07.186Z,11.30
2023-04-19T13:39:10.354Z,11.20
2023-04-19T13:40:19.486Z,11.30
2023-04-19T13:41:22.910Z,11.30
2023-04-19T13:42:25.503Z,11.30
2023-04-19T13:43:28.469Z,11.30
2023-04-19T13:44:30.844Z,11.30
2023-04-19T13:45:33.775Z,11.40
2023-04-19T13:46:35.779Z,11.40
2023-04-19T13:47:38.962Z,11.50
2023-04-19T13:48:41.904Z,11.60
2023-04-19T13:49:43.830Z,11.60
2023-04-19T13:50:46.718Z,11.60
2023-04-19T13:51:50.567Z,11.70
2023-04-19T13:52:55.392Z,11.70
2023-04-19T13:53:57.338Z,11.80
2023-04-19T13:55:00.594Z,11.80
2023-04-19T13:56:03.580Z,11.70
2023-04-19T13:58:08.801Z,11.80
2023-04-19T13:59:10.806Z,11.80
2023-04-19T14:00:14.797Z,11.80
2023-04-19T14:01:17.812Z,11.60
2023-04-19T14:03:25.234Z,11.50
2023-04-19T14:04:28.427Z,11.50
2023-04-19T14:05:31.628Z,11.60
2023-04-19T14:06:34.865Z,11.50
2023-04-19T14:07:37.858Z,11.50
2023-04-19T14:08:42.174Z,11.50
2023-04-19T14:09:44.655Z,11.60
2023-04-19T14:10:47.643Z,11.70
2023-04-19T14:11:49.625Z,11.80
2023-04-19T14:12:52.895Z,11.90
2023-04-19T14:13:54.952Z,11.80
2023-04-19T14:14:57.904Z,11.90
2023-04-19T14:16:00.862Z,12.00
2023-04-19T14:17:02.880Z,12.10
2023-04-19T14:18:06.021Z,12.20
2023-04-19T14:19:08.018Z,12.30
2023-04-19T14:20:12.618Z,12.30
2023-04-19T14:21:14.689Z,12.20
2023-04-19T14:22:17.830Z,12.20
2023-04-19T14:23:19.828Z,12.20
2023-04-19T14:24:24.111Z,12.10
2023-04-19T14:25:26.075Z,12.10
2023-04-19T14:26:29.080Z,12.00
2023-04-19T14:27:31.082Z,11.90
2023-04-19T14:29:36.248Z,11.80